sensor_id;sensor_type;location;lat;lon;timestamp;pressure;altitude;pressure_sealevel;temperature;humidity
36788;BME280;22738;45.560;9.434;2023-04-19T00:06:40;99931.03;;;13.16;100.00
36788;BME280;22738;45.560;9.434;2023-04-19T00:13:21;99933.41;;;13.19;100.00
36788;BME280;22738;45.560;9.434;2023-04-19T00:20:03;99928.41;;;13.16;100.00
36788;BME280;22738;45.560;9.434;2023-04-19T00:26:45;99934.19;;;13.08;100.00
36788;BME280;22738;45.560;9.434;2023-04-19T00:33:26;99926.69;;;13.04;100.00
36788;BME280;22738;45.560;9.434;2023-04-19T00:40:11;99922.13;;;13.07;100.00
36788;BME280;22738;45.560;9.434;2023-04-19T00:46:52;99922.53;;;13.01;100.00
36788;BME280;22738;45.560;9.434;2023-04-19T00:53:33;99920.88;;;13.00;100.00
36788;BME280;22738;45.560;9.434;2023-04-19T01:00:15;99918.31;;;12.87;100.00
36788;BME280;22738;45.560;9.434;2023-04-19T01:06:56;99916.38;;;12.78;100.00
36788;BME280;22738;45.560;9.434;2023-04-19T01:13:37;99902.66;;;12.76;100.00
36788;BME280;22738;45.560;9.434;2023-04-19T01:20:18;99906.00;;;12.66;100.00
36788;BME280;22738;45.560;9.434;2023-04-19T01:26:59;99907.88;;;12.64;100.00
36788;BME280;22738;45.560;9.434;2023-04-19T01:33:42;99899.75;;;12.68;100.00
36788;BME280;22738;45.560;9.434;2023-04-19T01:40:24;99898.13;;;12.67;100.00
36788;BME280;22738;45.560;9.434;2023-04-19T01:47:05;99878.91;;;12.57;100.00
36788;BME280;22738;45.560;9.434;2023-04-19T01:53:47;99882.94;;;12.61;100.00
36788;BME280;22738;45.560;9.434;2023-04-19T02:00:33;99888.38;;;12.58;100.00
36788;BME280;22738;45.560;9.434;2023-04-19T02:07:18;99876.94;;;12.48;100.00
36788;BME280;22738;45.560;9.434;2023-04-19T02:13:59;99878.19;;;12.43;100.00
36788;BME280;22738;45.560;9.434;2023-04-19T02:20:42;99873.66;;;12.34;100.00
36788;BME280;22738;45.560;9.434;2023-04-19T02:27:24;99872.66;;;12.24;100.00
36788;BME280;22738;45.560;9.434;2023-04-19T02:34:05;99874.34;;;12.12;100.00
36788;BME280;22738;45.560;9.434;2023-04-19T02:40:47;99859.59;;;12.00;100.00
36788;BME280;22738;45.560;9.434;2023-04-19T02:47:28;99862.28;;;11.86;100.00
36788;BME280;22738;45.560;9.434;2023-04-19T02:54:10;99852.66;;;11.75;100.00
36788;BME280;22738;45.560;9.434;2023-04-19T03:00:52;99859.00;;;11.71;100.00
36788;BME280;22738;45.560;9.434;2023-04-19T03:07:35;99856.88;;;11.64;100.00
36788;BME280;22738;45.560;9.434;2023-04-19T03:14:17;99850.66;;;11.54;100.00
36788;BME280;22738;45.560;9.434;2023-04-19T03:20:58;99847.13;;;11.55;100.00
36788;BME280;22738;45.560;9.434;2023-04-19T03:27:43;99848.16;;;11.39;100.00
36788;BME280;22738;45.560;9.434;2023-04-19T03:34:27;99842.13;;;11.39;100.00
36788;BME280;22738;45.560;9.434;2023-04-19T03:41:22;99839.84;;;11.34;100.00
36788;BME280;22738;45.560;9.434;2023-04-19T03:48:11;99843.22;;;11.22;100.00
36788;BME280;22738;45.560;9.434;2023-04-19T03:54:53;99837.31;;;11.20;100.00
36788;BME280;22738;45.560;9.434;2023-04-19T04:01:47;99823.44;;;11.21;100.00
36788;BME280;22738;45.560;9.434;2023-04-19T04:08:28;99831.81;;;11.12;100.00
36788;BME280;22738;45.560;9.434;2023-04-19T04:15:10;99830.06;;;11.13;100.00
36788;BME280;22738;45.560;9.434;2023-04-19T04:21:56;99826.34;;;11.29;100.00
36788;BME280;22738;45.560;9.434;2023-04-19T04:28:39;99836.09;;;11.26;100.00
36788;BME280;22738;45.560;9.434;2023-04-19T04:35:20;99840.03;;;11.31;100.00
36788;BME280;22738;45.560;9.434;2023-04-19T04:42:15;99842.97;;;11.39;100.00
36788;BME280;22738;45.560;9.434;2023-04-19T04:48:57;99848.97;;;11.53;100.00
36788;BME280;22738;45.560;9.434;2023-04-19T04:55:39;99845.56;;;11.65;100.00
36788;BME280;22738;45.560;9.434;2023-04-19T05:02:20;99849.00;;;11.65;100.00
36788;BME280;22738;45.560;9.434;2023-04-19T05:09:05;99845.44;;;11.66;100.00
36788;BME280;22738;45.560;9.434;2023-04-19T05:15:49;99845.47;;;11.54;100.00
36788;BME280;22738;45.560;9.434;2023-04-19T05:22:35;99846.41;;;11.78;100.00
36788;BME280;22738;45.560;9.434;2023-04-19T05:29:21;99845.66;;;12.01;100.00
36788;BME280;22738;45.560;9.434;2023-04-19T05:36:08;99841.34;;;12.25;100.00
36788;BME280;22738;45.560;9.434;2023-04-19T05:42:49;99835.94;;;12.52;100.00
36788;BME280;22738;45.560;9.434;2023-04-19T05:49:31;99845.16;;;12.68;100.00
36788;BME280;22738;45.560;9.434;2023-04-19T05:56:31;99840.59;;;13.07;100.00
36788;BME280;22738;45.560;9.434;2023-04-19T06:03:12;99847.19;;;13.34;100.00
36788;BME280;22738;45.560;9.434;2023-04-19T06:09:54;99846.44;;;13.78;100.00
36788;BME280;22738;45.560;9.434;2023-04-19T06:16:35;99835.31;;;14.32;100.00
36788;BME280;22738;45.560;9.434;2023-04-19T06:23:16;99852.47;;;19.71;89.32
36788;BME280;22738;45.560;9.434;2023-04-19T06:29:58;99849.50;;;22.11;61.61
36788;BME280;22738;45.560;9.434;2023-04-19T06:36:40;99859.06;;;24.52;55.94
36788;BME280;22738;45.560;9.434;2023-04-19T06:43:23;99854.47;;;24.60;49.20
36788;BME280;22738;45.560;9.434;2023-04-19T06:50:04;99855.97;;;25.26;49.59
36788;BME280;22738;45.560;9.434;2023-04-19T06:56:47;99854.19;;;26.16;48.90
36788;BME280;22738;45.560;9.434;2023-04-19T07:03:28;99856.16;;;27.55;43.05
36788;BME280;22738;45.560;9.434;2023-04-19T07:10:09;99853.34;;;25.05;45.86
36788;BME280;22738;45.560;9.434;2023-04-19T07:16:50;99853.25;;;27.76;42.52
36788;BME280;22738;45.560;9.434;2023-04-19T07:23:33;99848.75;;;28.41;39.39
36788;BME280;22738;45.560;9.434;2023-04-19T07:30:14;99845.91;;;26.39;43.08
36788;BME280;22738;45.560;9.434;2023-04-19T07:36:55;99840.50;;;28.93;39.71
36788;BME280;22738;45.560;9.434;2023-04-19T07:43:36;99839.38;;;29.07;39.97
36788;BME280;22738;45.560;9.434;2023-04-19T07:50:17;99835.72;;;29.26;39.75
36788;BME280;22738;45.560;9.434;2023-04-19T07:56:58;99830.31;;;27.36;41.06
36788;BME280;22738;45.560;9.434;2023-04-19T08:03:39;99831.97;;;28.34;40.41
36788;BME280;22738;45.560;9.434;2023-04-19T08:10:21;99830.94;;;25.91;43.73
36788;BME280;22738;45.560;9.434;2023-04-19T08:17:04;99823.38;;;25.94;45.48
36788;BME280;22738;45.560;9.434;2023-04-19T08:23:45;99814.44;;;24.91;47.03
36788;BME280;22738;45.560;9.434;2023-04-19T08:30:28;99812.06;;;24.25;49.98
36788;BME280;22738;45.560;9.434;2023-04-19T08:37:09;99805.03;;;23.88;51.16
36788;BME280;22738;45.560;9.434;2023-04-19T08:43:50;99796.44;;;23.05;53.69
36788;BME280;22738;45.560;9.434;2023-04-19T08:50:32;99790.91;;;23.14;55.21
36788;BME280;22738;45.560;9.434;2023-04-19T08:57:13;99787.44;;;24.09;52.47
36788;BME280;22738;45.560;9.434;2023-04-19T09:03:54;99790.34;;;24.50;50.99
36788;BME280;22738;45.560;9.434;2023-04-19T09:10:35;99783.84;;;24.53;52.93
36788;BME280;22738;45.560;9.434;2023-04-19T09:17:19;99776.28;;;23.56;55.21
36788;BME280;22738;45.560;9.434;2023-04-19T09:24:01;99761.88;;;23.87;55.61
36788;BME280;22738;45.560;9.434;2023-04-19T09:30:42;99754.22;;;23.63;52.59
36788;BME280;22738;45.560;9.434;2023-04-19T09:37:24;99745.59;;;23.32;55.80
36788;BME280;22738;45.560;9.434;2023-04-19T09:44:10;99738.47;;;23.18;54.47
36788;BME280;22738;45.560;9.434;2023-04-19T09:51:00;99721.56;;;23.42;56.24
36788;BME280;22738;45.560;9.434;2023-04-19T09:57:41;99725.25;;;23.91;54.91
36788;BME280;22738;45.560;9.434;2023-04-19T10:04:22;99713.16;;;24.39;52.67
36788;BME280;22738;45.560;9.434;2023-04-19T10:11:05;99699.53;;;24.21;51.11
36788;BME280;22738;45.560;9.434;2023-04-19T10:17:47;99703.66;;;24.72;51.61
36788;BME280;22738;45.560;9.434;2023-04-19T10:24:28;99696.69;;;24.22;50.54
36788;BME280;22738;45.560;9.434;2023-04-19T10:31:13;99684.53;;;24.28;51.88
36788;BME280;22738;45.560;9.434;2023-04-19T10:38:11;99670.41;;;24.21;51.76
36788;BME280;22738;45.560;9.434;2023-04-19T10:52:26;99649.41;;;24.47;52.07
36788;BME280;22738;45.560;9.434;2023-04-19T10:59:13;99630.22;;;23.81;52.98
36788;BME280;22738;45.560;9.434;2023-04-19T11:06:17;99614.75;;;24.21;51.06
36788;BME280;22738;45.560;9.434;2023-04-19T11:12:59;99603.72;;;23.96;50.40
36788;BME280;22738;45.560;9.434;2023-04-19T11:20:07;99595.09;;;24.08;50.45
36788;BME280;22738;45.560;9.434;2023-04-19T11:26:51;99581.09;;;24.15;51.30
36788;BME280;22738;45.560;9.434;2023-04-19T11:33:33;99570.72;;;23.98;50.63
36788;BME280;22738;45.560;9.434;2023-04-19T11:40:16;99564.78;;;23.54;51.74
36788;BME280;22738;45.560;9.434;2023-04-19T11:47:02;99549.91;;;23.74;54.27
36788;BME280;22738;45.560;9.434;2023-04-19T11:53:45;99532.25;;;23.39;52.66
36788;BME280;22738;45.560;9.434;2023-04-19T12:00:28;99519.22;;;23.23;53.85
36788;BME280;22738;45.560;9.434;2023-04-19T12:07:10;99518.41;;;23.58;51.73
36788;BME280;22738;45.560;9.434;2023-04-19T12:14:10;99495.72;;;23.49;51.34
36788;BME280;22738;45.560;9.434;2023-04-19T12:20:52;99486.28;;;23.61;53.03
36788;BME280;22738;45.560;9.434;2023-04-19T12:27:33;99489.53;;;23.84;51.08
36788;BME280;22738;45.560;9.434;2023-04-19T12:34:16;99468.63;;;22.76;55.26
36788;BME280;22738;45.560;9.434;2023-04-19T12:40:57;99458.34;;;23.02;56.35
36788;BME280;22738;45.560;9.434;2023-04-19T12:47:38;99459.66;;;23.27;53.82
36788;BME280;22738;45.560;9.434;2023-04-19T12:54:20;99436.94;;;23.54;50.17
36788;BME280;22738;45.560;9.434;2023-04-19T13:01:02;99436.75;;;23.55;48.18
36788;BME280;22738;45.560;9.434;2023-04-19T13:07:44;99413.50;;;23.51;50.28
36788;BME280;22738;45.560;9.434;2023-04-19T13:14:27;99408.13;;;23.23;50.98
36788;BME280;22738;45.560;9.434;2023-04-19T13:21:08;99381.94;;;23.49;50.08
36788;BME280;22738;45.560;9.434;2023-04-19T13:27:49;99372.66;;;23.60;49.54
36788;BME280;22738;45.560;9.434;2023-04-19T13:34:31;99364.44;;;23.48;49.38
36788;BME280;22738;45.560;9.434;2023-04-19T13:41:12;99348.25;;;23.36;50.11
36788;BME280;22738;45.560;9.434;2023-04-19T13:47:53;99344.69;;;23.44;49.16
36788;BME280;22738;45.560;9.434;2023-04-19T13:54:34;99327.47;;;23.61;48.79
36788;BME280;22738;45.560;9.434;2023-04-19T14:01:15;99310.28;;;23.44;47.03
36788;BME280;22738;45.560;9.434;2023-04-19T14:07:56;99292.38;;;23.46;47.05
36788;BME280;22738;45.560;9.434;2023-04-19T14:14:37;99293.94;;;23.68;45.90
36788;BME280;22738;45.560;9.434;2023-04-19T14:21:18;99275.56;;;23.60;45.82
36788;BME280;22738;45.560;9.434;2023-04-19T14:28:00;99257.19;;;23.52;45.78
36788;BME280;22738;45.560;9.434;2023-04-19T14:34:42;99242.84;;;23.74;46.81
36788;BME280;22738;45.560;9.434;2023-04-19T14:41:24;99243.53;;;23.83;46.03
36788;BME280;22738;45.560;9.434;2023-04-19T14:48:05;99231.97;;;23.97;44.37
36788;BME280;22738;45.560;9.434;2023-04-19T14:54:47;99220.56;;;23.96;45.56
36788;BME280;22738;45.560;9.434;2023-04-19T15:01:29;99210.75;;;23.90;44.45
36788;BME280;22738;45.560;9.434;2023-04-19T15:08:10;99210.44;;;24.06;44.87
36788;BME280;22738;45.560;9.434;2023-04-19T15:14:51;99199.41;;;23.96;43.40
36788;BME280;22738;45.560;9.434;2023-04-19T15:21:32;99200.66;;;24.07;43.07
36788;BME280;22738;45.560;9.434;2023-04-19T15:28:14;99192.84;;;23.92;41.95
36788;BME280;22738;45.560;9.434;2023-04-19T15:34:55;99195.72;;;23.97;42.85
36788;BME280;22738;45.560;9.434;2023-04-19T15:41:36;99196.16;;;24.01;41.58
36788;BME280;22738;45.560;9.434;2023-04-19T15:48:17;99195.94;;;24.02;41.21
36788;BME280;22738;45.560;9.434;2023-04-19T15:54:58;99196.31;;;23.99;41.54
36788;BME280;22738;45.560;9.434;2023-04-19T16:01:39;99180.97;;;23.75;41.28
36788;BME280;22738;45.560;9.434;2023-04-19T16:08:20;99192.44;;;23.95;42.25
36788;BME280;22738;45.560;9.434;2023-04-19T16:15:02;99187.50;;;23.79;41.98
36788;BME280;22738;45.560;9.434;2023-04-19T16:21:44;99187.75;;;23.16;41.88
36788;BME280;22738;45.560;9.434;2023-04-19T16:28:27;99179.91;;;23.29;42.15
36788;BME280;22738;45.560;9.434;2023-04-19T16:35:10;99179.06;;;23.28;43.04
36788;BME280;22738;45.560;9.434;2023-04-19T16:41:51;99173.25;;;23.05;44.14
36788;BME280;22738;45.560;9.434;2023-04-19T16:48:32;99165.03;;;22.94;43.00
36788;BME280;22738;45.560;9.434;2023-04-19T16:55:14;99150.88;;;22.74;44.92
36788;BME280;22738;45.560;9.434;2023-04-19T17:01:55;99148.81;;;22.69;45.92
36788;BME280;22738;45.560;9.434;2023-04-19T17:08:37;99138.41;;;22.67;45.26
36788;BME280;22738;45.560;9.434;2023-04-19T17:15:18;99150.00;;;22.24;46.45
36788;BME280;22738;45.560;9.434;2023-04-19T17:21:59;99146.41;;;22.11;47.79
36788;BME280;22738;45.560;9.434;2023-04-19T17:28:44;99147.84;;;21.92;49.74
36788;BME280;22738;45.560;9.434;2023-04-19T17:35:25;99154.13;;;21.76;51.21
36788;BME280;22738;45.560;9.434;2023-04-19T17:42:07;99155.22;;;21.67;54.65
36788;BME280;22738;45.560;9.434;2023-04-19T17:48:48;99170.81;;;21.48;57.84
36788;BME280;22738;45.560;9.434;2023-04-19T17:55:28;99178.41;;;20.84;68.30
36788;BME280;22738;45.560;9.434;2023-04-19T18:02:09;99187.28;;;20.15;69.30
36788;BME280;22738;45.560;9.434;2023-04-19T18:08:50;99181.84;;;19.94;70.94
36788;BME280;22738;45.560;9.434;2023-04-19T18:15:32;99187.84;;;19.80;80.09
36788;BME280;22738;45.560;9.434;2023-04-19T18:22:13;99200.84;;;19.10;97.23
36788;BME280;22738;45.560;9.434;2023-04-19T18:28:54;99213.88;;;18.80;100.00
36788;BME280;22738;45.560;9.434;2023-04-19T18:35:35;99212.22;;;18.87;100.00
36788;BME280;22738;45.560;9.434;2023-04-19T18:42:17;99241.28;;;18.77;100.00
36788;BME280;22738;45.560;9.434;2023-04-19T18:48:57;99258.03;;;18.60;100.00
36788;BME280;22738;45.560;9.434;2023-04-19T18:55:39;99271.63;;;18.56;100.00
36788;BME280;22738;45.560;9.434;2023-04-19T19:02:20;99310.97;;;18.47;100.00
36788;BME280;22738;45.560;9.434;2023-04-19T19:09:01;99316.13;;;18.31;100.00
36788;BME280;22738;45.560;9.434;2023-04-19T19:15:42;99321.94;;;17.50;100.00
36788;BME280;22738;45.560;9.434;2023-04-19T19:22:23;99316.34;;;16.84;100.00
36788;BME280;22738;45.560;9.434;2023-04-19T19:29:07;99324.28;;;16.74;100.00
36788;BME280;22738;45.560;9.434;2023-04-19T19:35:48;99320.31;;;17.05;100.00
36788;BME280;22738;45.560;9.434;2023-04-19T19:42:30;99317.31;;;17.00;100.00
36788;BME280;22738;45.560;9.434;2023-04-19T19:49:11;99306.13;;;16.73;100.00
36788;BME280;22738;45.560;9.434;2023-04-19T19:55:54;99280.94;;;16.44;100.00
36788;BME280;22738;45.560;9.434;2023-04-19T20:02:39;99284.78;;;16.68;100.00
36788;BME280;22738;45.560;9.434;2023-04-19T20:09:21;99305.97;;;16.47;100.00
36788;BME280;22738;45.560;9.434;2023-04-19T20:16:03;99330.72;;;16.08;100.00
36788;BME280;22738;45.560;9.434;2023-04-19T20:22:44;99323.91;;;15.41;100.00
36788;BME280;22738;45.560;9.434;2023-04-19T20:29:25;99332.56;;;15.32;100.00
36788;BME280;22738;45.560;9.434;2023-04-19T20:36:06;99314.72;;;15.18;100.00
36788;BME280;22738;45.560;9.434;2023-04-19T20:42:49;99315.56;;;15.09;100.00
36788;BME280;22738;45.560;9.434;2023-04-19T20:49:33;99330.22;;;15.20;100.00
36788;BME280;22738;45.560;9.434;2023-04-19T20:56:14;99382.22;;;15.51;100.00
36788;BME280;22738;45.560;9.434;2023-04-19T21:02:55;99418.06;;;15.49;100.00
36788;BME280;22738;45.560;9.434;2023-04-19T21:09:36;99410.13;;;15.51;100.00
36788;BME280;22738;45.560;9.434;2023-04-19T21:16:18;99403.50;;;15.37;100.00
36788;BME280;22738;45.560;9.434;2023-04-19T21:22:59;99399.38;;;15.35;100.00
36788;BME280;22738;45.560;9.434;2023-04-19T21:29:41;99381.63;;;14.81;100.00
36788;BME280;22738;45.560;9.434;2023-04-19T21:36:22;99363.00;;;14.36;100.00
36788;BME280;22738;45.560;9.434;2023-04-19T21:43:03;99364.50;;;14.08;100.00
36788;BME280;22738;45.560;9.434;2023-04-19T21:49:44;99398.56;;;14.16;100.00
36788;BME280;22738;45.560;9.434;2023-04-19T21:56:26;99444.28;;;14.51;100.00
36788;BME280;22738;45.560;9.434;2023-04-19T22:03:07;99441.84;;;14.59;100.00
36788;BME280;22738;45.560;9.434;2023-04-19T22:09:48;99446.03;;;14.80;100.00
36788;BME280;22738;45.560;9.434;2023-04-19T22:16:32;99463.78;;;14.56;100.00
36788;BME280;22738;45.560;9.434;2023-04-19T22:23:13;99498.09;;;14.52;100.00
36788;BME280;22738;45.560;9.434;2023-04-19T22:29:54;99481.41;;;14.34;100.00
36788;BME280;22738;45.560;9.434;2023-04-19T22:36:35;99439.13;;;13.27;100.00
36788;BME280;22738;45.560;9.434;2023-04-19T22:43:16;99435.41;;;13.09;100.00
36788;BME280;22738;45.560;9.434;2023-04-19T22:49:57;99413.53;;;13.32;100.00
36788;BME280;22738;45.560;9.434;2023-04-19T22:56:39;99400.66;;;12.99;100.00
36788;BME280;22738;45.560;9.434;2023-04-19T23:03:20;99425.50;;;12.92;100.00
36788;BME280;22738;45.560;9.434;2023-04-19T23:10:01;99443.00;;;12.89;100.00
36788;BME280;22738;45.560;9.434;2023-04-19T23:16:43;99495.06;;;13.32;100.00
36788;BME280;22738;45.560;9.434;2023-04-19T23:23:25;99498.09;;;13.48;100.00
36788;BME280;22738;45.560;9.434;2023-04-19T23:30:08;99502.50;;;13.37;100.00
36788;BME280;22738;45.560;9.434;2023-04-19T23:36:49;99477.22;;;13.28;100.00
36788;BME280;22738;45.560;9.434;2023-04-19T23:43:30;99463.50;;;13.26;100.00
36788;BME280;22738;45.560;9.434;2023-04-19T23:50:13;99474.66;;;13.17;100.00
36788;BME280;22738;45.560;9.434;2023-04-19T23:56:55;99484.06;;;13.29;100.00
